createdAt,value
2023-05-05T04:46:38.319Z,3.93
2023-05-05T04:51:44.142Z,4.13
2023-05-05T04:56:47.044Z,4.20
2023-05-05T05:01:49.810Z,4.40
2023-05-05T05:06:52.758Z,3.83
2023-05-05T05:11:58.909Z,3.17
2023-05-05T05:17:01.647Z,3.17
2023-05-05T05:22:04.306Z,4.33
2023-05-05T05:27:10.171Z,4.27
2023-05-05T05:32:13.236Z,4.13
2023-05-05T05:37:16.180Z,3.33
2023-05-05T05:42:18.892Z,3.63
2023-05-05T05:47:21.611Z,3.70
2023-05-05T05:52:24.306Z,3.43
2023-05-05T05:57:27.797Z,3.30
2023-05-05T06:02:30.633Z,3.63
2023-05-05T06:07:33.441Z,4.33
2023-05-05T06:12:36.153Z,4.03
2023-05-05T06:17:38.950Z,4.43
2023-05-05T06:22:41.647Z,3.40
2023-05-05T06:27:44.377Z,3.20
2023-05-05T06:32:47.070Z,3.47
2023-05-05T06:37:49.839Z,2.70
2023-05-05T06:42:52.531Z,3.00
2023-05-05T06:47:55.672Z,3.70
2023-05-05T06:52:58.389Z,3.70
2023-05-05T06:58:01.199Z,4.03
2023-05-05T07:03:04.343Z,3.70
2023-05-05T07:08:08.991Z,3.07
2023-05-05T07:13:11.856Z,3.47
2023-05-05T07:18:18.048Z,2.80
2023-05-05T07:23:20.719Z,2.80
2023-05-05T07:28:23.447Z,3.37
2023-05-05T07:33:26.160Z,3.03
2023-05-05T07:38:28.916Z,2.67
2023-05-05T07:43:31.619Z,3.00
2023-05-05T07:48:34.489Z,4.27
2023-05-05T07:53:37.526Z,2.57
2023-05-05T07:58:40.236Z,3.30
2023-05-05T08:03:43.113Z,2.57
2023-05-05T08:08:46.052Z,2.40
2023-05-05T08:13:48.923Z,2.20
2023-05-05T08:18:52.031Z,2.50
2023-05-05T08:23:54.705Z,2.00
2023-05-05T08:29:00.773Z,1.60
2023-05-05T08:34:05.073Z,1.20
2023-05-05T08:39:07.809Z,1.40
2023-05-05T08:44:11.786Z,1.60
2023-05-05T08:49:18.099Z,1.60
2023-05-05T08:54:21.272Z,1.50
2023-05-05T08:59:25.189Z,1.00
2023-05-05T09:04:27.990Z,1.30
2023-05-05T09:09:31.184Z,1.60
2023-05-05T09:14:33.857Z,0.90
2023-05-05T09:20:07.388Z,1.43
2023-05-05T09:25:15.186Z,1.70
2023-05-05T09:30:23.535Z,1.43
2023-05-05T09:35:55.156Z,1.40
2023-05-05T09:40:58.061Z,1.30
2023-05-05T09:46:08.110Z,1.60
2023-05-05T09:51:11.525Z,1.57
2023-05-05T09:56:14.371Z,1.60
2023-05-05T10:01:24.070Z,0.90
2023-05-05T10:06:47.564Z,1.50
2023-05-05T10:11:50.933Z,1.20
2023-05-05T10:16:55.537Z,1.70
2023-05-05T10:22:03.098Z,1.40
2023-05-05T10:27:15.686Z,1.57
2023-05-05T10:37:39.404Z,1.50
2023-05-05T10:42:42.526Z,1.00
2023-05-05T10:47:45.526Z,1.17
2023-05-05T10:53:06.948Z,1.13
2023-05-05T10:58:11.166Z,1.13
2023-05-05T11:03:17.132Z,1.35
2023-05-05T11:08:27.071Z,1.35
2023-05-05T11:13:30.530Z,1.20
2023-05-05T11:18:51.589Z,1.20
2023-05-05T11:23:54.452Z,1.23
2023-05-05T11:29:03.981Z,1.30
2023-05-05T11:34:28.893Z,1.37
2023-05-05T11:40:08.333Z,1.40
2023-05-05T11:45:25.001Z,1.38
2023-05-05T11:50:28.233Z,1.45
2023-05-05T11:55:31.260Z,1.50
2023-05-05T12:00:34.549Z,1.60
2023-05-05T12:05:37.341Z,1.40
2023-05-05T12:10:40.180Z,1.60
2023-05-05T12:15:42.961Z,1.20
2023-05-05T12:20:47.013Z,1.83
2023-05-05T12:25:50.022Z,1.27
2023-05-05T12:30:59.691Z,1.80
2023-05-05T12:36:02.972Z,1.20
2023-05-05T12:41:05.902Z,1.77
2023-05-05T12:46:11.859Z,1.77
2023-05-05T12:51:23.161Z,1.73
2023-05-05T12:56:40.588Z,1.48
2023-05-05T13:01:54.167Z,1.30
2023-05-05T13:07:11.694Z,1.17
2023-05-05T13:12:15.681Z,1.35
2023-05-05T13:17:18.619Z,1.42
2023-05-05T13:22:21.415Z,1.60
2023-05-05T13:27:24.268Z,1.30
2023-05-05T13:32:27.096Z,1.60
2023-05-05T13:37:29.928Z,1.77
2023-05-05T13:42:33.213Z,1.40
2023-05-05T13:47:36.208Z,1.45
2023-05-05T13:52:38.986Z,1.35
2023-05-05T13:57:41.725Z,1.20
2023-05-05T14:02:44.555Z,1.23
2023-05-05T14:07:47.834Z,1.23
2023-05-05T14:12:50.609Z,1.33
2023-05-05T14:17:53.489Z,1.67
2023-05-05T14:22:56.439Z,1.23
2023-05-05T14:27:59.269Z,1.02
2023-05-05T14:33:02.119Z,1.55
2023-05-05T14:38:05.008Z,1.40
2023-05-05T14:43:07.979Z,1.60
2023-05-05T14:48:11.297Z,1.52
2023-05-05T14:53:14.057Z,1.30
2023-05-05T14:58:18.689Z,1.50
2023-05-05T15:03:21.578Z,1.20
2023-05-05T15:08:24.459Z,1.63
2023-05-05T15:13:27.284Z,1.50
2023-05-05T15:18:30.081Z,1.73
2023-05-05T15:23:32.854Z,1.40
2023-05-05T15:28:36.009Z,1.60
2023-05-05T15:33:39.824Z,1.30
2023-05-05T15:38:43.342Z,1.70
2023-05-05T15:43:46.247Z,1.95
2023-05-05T15:48:48.998Z,1.50
2023-05-05T15:53:53.566Z,3.00
2023-05-05T15:58:58.874Z,1.77
2023-05-05T16:04:01.712Z,2.17
2023-05-05T16:09:04.835Z,2.05
2023-05-05T16:14:07.608Z,1.50
2023-05-05T16:19:10.665Z,1.58
2023-05-05T16:24:16.404Z,1.77
2023-05-05T16:29:19.200Z,2.03
2023-05-05T16:34:22.167Z,1.30
2023-05-05T16:39:25.289Z,1.50
2023-05-05T16:44:28.072Z,1.40
2023-05-05T16:49:30.954Z,1.60
2023-05-05T16:54:33.762Z,1.20
2023-05-05T16:59:36.535Z,1.35
2023-05-05T17:04:39.295Z,1.30
2023-05-05T17:09:42.070Z,1.23
2023-05-05T17:14:47.747Z,1.45
2023-05-05T17:19:50.474Z,1.55
2023-05-05T17:24:53.245Z,1.70
2023-05-05T17:29:56.291Z,1.20
2023-05-05T17:34:59.062Z,1.63
2023-05-05T17:40:01.890Z,1.45
2023-05-05T17:45:05.080Z,1.70
2023-05-05T17:50:10.368Z,1.70
2023-05-05T17:55:13.289Z,1.90
2023-05-05T18:00:16.575Z,1.60
2023-05-05T18:05:19.728Z,1.63
2023-05-05T18:10:23.287Z,1.37
2023-05-05T18:15:26.517Z,1.73
2023-05-05T18:20:29.444Z,1.67
2023-05-05T18:25:32.526Z,1.73
2023-05-05T18:30:36.173Z,2.70
2023-05-05T18:35:38.970Z,2.33
2023-05-05T18:40:41.753Z,2.43
2023-05-05T18:45:44.679Z,2.00
2023-05-05T18:50:48.907Z,2.03
2023-05-05T18:55:51.695Z,2.07
2023-05-05T19:00:54.932Z,2.10
2023-05-05T19:05:57.775Z,2.67
2023-05-05T19:11:00.524Z,2.63
2023-05-05T19:16:03.465Z,2.50
2023-05-05T19:21:06.758Z,2.70
2023-05-05T19:26:10.700Z,2.57
2023-05-05T19:31:13.466Z,2.63
2023-05-05T19:36:16.554Z,2.60
2023-05-05T19:41:19.530Z,2.50
2023-05-05T19:46:22.856Z,2.47
2023-05-05T19:51:26.181Z,2.80
2023-05-05T19:56:28.998Z,2.70
2023-05-05T20:01:33.026Z,2.57
2023-05-05T20:06:37.364Z,2.33
2023-05-05T20:11:40.151Z,2.27
2023-05-05T20:16:43.140Z,2.53
2023-05-05T20:21:46.197Z,2.93
2023-05-05T20:26:49.207Z,2.80
2023-05-05T20:31:52.067Z,2.80
2023-05-05T20:36:55.144Z,2.37
2023-05-05T20:41:57.914Z,2.40
2023-05-05T20:47:00.772Z,2.23
2023-05-05T20:52:03.872Z,2.60
2023-05-05T20:57:07.923Z,2.33
2023-05-05T21:02:10.862Z,2.13
2023-05-05T21:07:13.749Z,2.30
2023-05-05T21:12:16.541Z,2.57
2023-05-05T21:17:19.340Z,2.40
2023-05-05T21:22:22.315Z,3.33
2023-05-05T21:27:25.435Z,2.77
2023-05-05T21:32:28.375Z,2.60
2023-05-05T21:37:31.662Z,2.70
2023-05-05T21:42:34.414Z,2.40
2023-05-05T21:47:37.413Z,2.70
2023-05-05T21:52:41.024Z,2.63
2023-05-05T21:57:44.661Z,3.07
2023-05-05T22:02:47.526Z,2.77
2023-05-05T22:07:50.319Z,2.90
2023-05-05T22:12:53.129Z,2.83
2023-05-05T22:17:55.940Z,3.23
2023-05-05T22:22:58.917Z,3.00
2023-05-05T22:28:01.752Z,3.30
2023-05-05T22:33:04.581Z,3.27
2023-05-05T22:38:07.798Z,2.93
2023-05-05T22:43:10.699Z,3.33
2023-05-05T22:48:13.500Z,2.60
2023-05-05T22:53:16.476Z,2.77
2023-05-05T22:58:19.365Z,2.87
2023-05-05T23:03:22.351Z,2.43
2023-05-05T23:08:25.087Z,2.67
2023-05-05T23:13:27.831Z,2.43
2023-05-05T23:18:30.731Z,2.63
2023-05-05T23:23:33.519Z,2.80
2023-05-05T23:28:36.290Z,2.70
2023-05-05T23:33:39.124Z,3.30
2023-05-05T23:38:41.966Z,3.00
2023-05-05T23:43:44.743Z,2.80
